Time;durP1;ratioP1;P1;durP2;ratioP2;P2;SDS_P1;SDS_P2;PMS_P1;PMS_P2;Temp;Humidity;BMP_temperature;BMP_pressure;BME280_temperature;BME280_humidity;BME280_pressure;Samples;Min_cycle;Max_cycle;Signal;HPM_P1;HPM_P2
2022/11/25 00:01:29;;;;;;;3.03;2.35;;;7.60;61.60;;;;;;5006896;28;20124;-78
2022/11/25 00:03:56;;;;;;;4.60;2.80;;;7.60;61.60;;;;;;5006456;28;21116;-77
2022/11/25 00:06:27;;;;;;;3.30;2.50;;;7.60;61.40;;;;;;5007001;28;20420;-77
2022/11/25 00:08:58;;;;;;;3.90;2.92;;;7.60;61.50;;;;;;5007481;28;20041;-77
2022/11/25 00:11:24;;;;;;;4.43;2.95;;;7.60;61.50;;;;;;4977953;28;20052;-76
2022/11/25 00:13:50;;;;;;;3.65;2.65;;;7.50;61.40;;;;;;5003773;28;20038;-78
2022/11/25 00:16:19;;;;;;;3.63;2.50;;;7.50;61.40;;;;;;5006523;28;20524;-77
2022/11/25 00:18:50;;;;;;;5.25;3.10;;;7.50;61.50;;;;;;5006794;28;20038;-76
2022/11/25 00:21:19;;;;;;;3.42;2.60;;;7.50;61.40;;;;;;5005426;28;20042;-77
2022/11/25 00:23:53;;;;;;;4.97;2.90;;;7.50;61.50;;;;;;5005726;28;20041;-76
2022/11/25 00:26:20;;;;;;;3.95;2.70;;;7.50;61.50;;;;;;4988696;28;20049;-77
2022/11/25 00:28:47;;;;;;;4.43;2.83;;;7.50;61.50;;;;;;5005750;28;20038;-76
2022/11/25 00:31:14;;;;;;;4.47;2.85;;;7.50;61.50;;;;;;5002448;28;20059;-76
2022/11/25 00:33:41;;;;;;;4.35;2.33;;;7.50;61.60;;;;;;5005783;28;20084;-77
2022/11/25 00:36:18;;;;;;;4.55;2.90;;;7.50;61.70;;;;;;5005820;28;20037;-76
2022/11/25 00:45:19;;;;;;;4.47;3.33;;;7.50;61.70;;;;;;5004993;28;20057;-77
2022/11/25 00:47:45;;;;;;;4.18;3.08;;;7.50;61.80;;;;;;5008327;28;20062;-77
2022/11/25 00:50:11;;;;;;;4.15;3.08;;;7.50;61.80;;;;;;5003767;28;20732;-77
2022/11/25 00:52:36;;;;;;;5.03;2.97;;;7.50;61.80;;;;;;4988836;28;20045;-77
2022/11/25 00:55:03;;;;;;;4.18;2.88;;;7.50;61.80;;;;;;5021390;28;20038;-78
2022/11/25 00:57:30;;;;;;;5.65;3.75;;;7.50;61.90;;;;;;5005985;28;20044;-77
2022/11/25 00:59:56;;;;;;;5.20;3.35;;;7.50;61.90;;;;;;5004626;28;20092;-77
2022/11/25 01:02:21;;;;;;;4.78;3.33;;;7.50;62.00;;;;;;5004176;28;20029;-77
2022/11/25 01:04:48;;;;;;;4.15;2.88;;;7.50;62.10;;;;;;4986604;28;20491;-77
2022/11/25 01:07:15;;;;;;;4.35;3.08;;;7.50;62.10;;;;;;5006058;28;20033;-78
2022/11/25 01:09:41;;;;;;;5.28;3.45;;;7.50;62.00;;;;;;4987370;28;20038;-78
2022/11/25 01:12:07;;;;;;;4.90;3.08;;;7.50;61.90;;;;;;4987964;28;20042;-78
2022/11/25 01:14:33;;;;;;;4.97;3.45;;;7.50;61.80;;;;;;5005909;28;20026;-78
2022/11/25 01:16:59;;;;;;;4.57;3.17;;;7.50;61.80;;;;;;5004807;28;20037;-78
2022/11/25 01:19:25;;;;;;;7.45;3.58;;;7.50;61.70;;;;;;5002243;28;20033;-78
2022/11/25 01:21:51;;;;;;;5.18;3.50;;;7.50;61.60;;;;;;5005795;28;20128;-77
2022/11/25 01:24:17;;;;;;;4.85;3.35;;;7.50;61.70;;;;;;5002085;28;20034;-77
2022/11/25 01:26:44;;;;;;;4.82;2.80;;;7.50;61.70;;;;;;5003950;28;20361;-76
2022/11/25 01:29:17;;;;;;;4.25;3.28;;;7.50;61.80;;;;;;5003827;28;20427;-77
2022/11/25 01:31:44;;;;;;;6.10;3.10;;;7.50;61.70;;;;;;5005562;28;20041;-76
2022/11/25 01:34:21;;;;;;;4.68;3.25;;;7.50;61.60;;;;;;5004547;28;20042;-77
2022/11/25 01:36:48;;;;;;;4.93;3.17;;;7.50;61.70;;;;;;4985433;28;20037;-77
2022/11/25 01:39:24;;;;;;;6.05;3.22;;;7.50;61.70;;;;;;5004415;28;20056;-77
2022/11/25 01:41:50;;;;;;;4.55;2.55;;;7.50;61.70;;;;;;5000911;28;20061;-77
2022/11/25 01:44:21;;;;;;;4.53;3.13;;;7.50;61.70;;;;;;4987749;28;20081;-77
2022/11/25 01:46:49;;;;;;;4.60;3.22;;;7.50;61.60;;;;;;5004897;28;20065;-77
2022/11/25 01:49:48;;;;;;;4.50;3.20;;;7.50;61.50;;;;;;5005018;28;20073;-78
2022/11/25 01:52:20;;;;;;;4.80;2.95;;;7.50;61.50;;;;;;4986124;28;20041;-77
2022/11/25 01:55:04;;;;;;;4.72;3.00;;;7.50;61.60;;;;;;5003919;28;20104;-78
2022/11/25 01:57:47;;;;;;;4.80;2.85;;;7.40;61.60;;;;;;5005527;28;20069;-79
2022/11/25 02:00:14;;;;;;;4.47;3.30;;;7.50;61.50;;;;;;5003428;28;20064;-78
2022/11/25 02:02:45;;;;;;;4.80;3.40;;;7.50;61.50;;;;;;5005722;28;20420;-78
2022/11/25 02:05:14;;;;;;;4.90;3.17;;;7.40;61.30;;;;;;5002411;28;20041;-77
2022/11/25 02:07:43;;;;;;;5.00;3.13;;;7.50;61.30;;;;;;5003657;28;20060;-77
2022/11/25 02:10:13;;;;;;;4.65;2.90;;;7.50;61.40;;;;;;4998492;28;20038;-77
2022/11/25 02:12:44;;;;;;;5.55;3.38;;;7.50;61.40;;;;;;4986959;28;20045;-78
2022/11/25 02:15:11;;;;;;;6.53;3.30;;;7.40;61.30;;;;;;5004505;28;20091;-78
2022/11/25 02:17:37;;;;;;;4.10;3.08;;;7.40;61.20;;;;;;5005482;28;20264;-78
2022/11/25 02:20:08;;;;;;;5.07;3.38;;;7.40;61.20;;;;;;5004541;28;20103;-78
2022/11/25 02:22:49;;;;;;;4.43;3.17;;;7.40;61.10;;;;;;5001594;28;20040;-77
2022/11/25 02:25:34;;;;;;;5.22;3.40;;;7.40;61.10;;;;;;5004544;28;20196;-78
2022/11/25 02:28:05;;;;;;;5.32;3.40;;;7.40;61.00;;;;;;4987791;28;20041;-77
2022/11/25 02:30:32;;;;;;;4.47;3.20;;;7.40;61.10;;;;;;4984401;28;20578;-76
2022/11/25 02:32:59;;;;;;;5.95;3.50;;;7.40;61.00;;;;;;4963331;28;20036;-77
2022/11/25 02:35:31;;;;;;;6.20;3.45;;;7.40;61.00;;;;;;4971631;28;20037;-77
2022/11/25 02:38:08;;;;;;;5.82;3.63;;;7.40;61.10;;;;;;4989328;28;20034;-77
2022/11/25 02:40:59;;;;;;;5.18;3.40;;;7.40;61.20;;;;;;4972948;28;20088;-77
2022/11/25 02:43:26;;;;;;;5.57;3.40;;;7.40;61.00;;;;;;4969432;28;20064;-77
2022/11/25 02:45:52;;;;;;;5.40;3.35;;;7.40;61.00;;;;;;4992025;28;20074;-78
2022/11/25 02:48:20;;;;;;;5.00;3.45;;;7.40;61.10;;;;;;4975197;28;20057;-78
2022/11/25 02:50:46;;;;;;;4.82;3.63;;;7.40;61.10;;;;;;4975294;28;20088;-78
2022/11/25 02:53:13;;;;;;;4.88;3.15;;;7.40;61.00;;;;;;4990926;28;20053;-78
2022/11/25 02:55:39;;;;;;;4.38;3.45;;;7.40;61.00;;;;;;4958692;28;20034;-77
2022/11/25 02:58:06;;;;;;;5.20;3.65;;;7.40;61.00;;;;;;4984921;28;20100;-77
2022/11/25 03:00:32;;;;;;;5.10;3.50;;;7.40;60.90;;;;;;5008156;28;20550;-76
2022/11/25 03:02:58;;;;;;;5.38;3.33;;;7.40;60.80;;;;;;4975091;28;20037;-76
2022/11/25 03:05:24;;;;;;;5.88;3.60;;;7.40;60.80;;;;;;5008364;28;20116;-76
2022/11/25 03:07:50;;;;;;;5.80;3.65;;;7.40;60.80;;;;;;4989041;28;20049;-77
2022/11/25 03:10:18;;;;;;;4.32;3.38;;;7.40;60.80;;;;;;4989130;28;20505;-78
2022/11/25 03:12:45;;;;;;;5.90;3.60;;;7.40;60.90;;;;;;5005554;28;20125;-78
2022/11/25 03:15:11;;;;;;;6.60;3.75;;;7.30;60.80;;;;;;4989050;28;20100;-78
2022/11/25 03:17:37;;;;;;;6.55;4.18;;;7.30;60.80;;;;;;4989664;28;20048;-79
2022/11/25 03:20:05;;;;;;;6.45;3.70;;;7.40;60.80;;;;;;4989169;28;20041;-79
2022/11/25 03:22:31;;;;;;;6.47;3.63;;;7.30;60.70;;;;;;4990143;28;20112;-78
2022/11/25 03:24:57;;;;;;;6.45;3.92;;;7.40;60.80;;;;;;4988147;28;20152;-78
2022/11/25 03:27:23;;;;;;;6.13;3.85;;;7.40;60.80;;;;;;5006551;28;20403;-78
2022/11/25 03:29:49;;;;;;;6.32;3.72;;;7.30;60.80;;;;;;4990435;28;20033;-78
2022/11/25 03:32:15;;;;;;;6.10;3.65;;;7.30;60.80;;;;;;4988521;28;20543;-78
2022/11/25 03:34:41;;;;;;;6.50;4.07;;;7.40;60.90;;;;;;4989480;28;20034;-78
2022/11/25 03:37:08;;;;;;;5.70;3.50;;;7.30;60.90;;;;;;4997231;28;20065;-77
2022/11/25 03:39:34;;;;;;;5.38;3.55;;;7.40;61.00;;;;;;5007503;28;20084;-77
2022/11/25 03:42:00;;;;;;;5.50;3.50;;;7.30;60.70;;;;;;4985583;28;20062;-78
2022/11/25 03:44:26;;;;;;;4.97;3.45;;;7.30;60.70;;;;;;4989573;28;20032;-77
2022/11/25 03:46:52;;;;;;;5.80;3.80;;;7.30;60.70;;;;;;4976616;28;20060;-77
2022/11/25 03:49:18;;;;;;;5.97;4.07;;;7.30;60.70;;;;;;4988723;28;20034;-77
2022/11/25 03:51:44;;;;;;;6.35;4.00;;;7.40;60.70;;;;;;5005715;28;20535;-78
2022/11/25 03:54:11;;;;;;;5.35;3.72;;;7.30;60.60;;;;;;4971704;28;20030;-77
2022/11/25 03:57:00;;;;;;;5.70;3.45;;;7.30;60.40;;;;;;5005819;28;20053;-77
2022/11/25 03:59:27;;;;;;;6.70;3.95;;;7.30;60.20;;;;;;4989433;28;20049;-76
2022/11/25 04:01:53;;;;;;;6.47;4.30;;;7.30;60.20;;;;;;4975405;28;20034;-80
2022/11/25 04:04:20;;;;;;;6.03;3.75;;;7.30;60.20;;;;;;4986023;28;20057;-80
2022/11/25 04:06:46;;;;;;;5.05;3.33;;;7.30;60.20;;;;;;4987352;28;20088;-79
2022/11/25 04:09:12;;;;;;;5.65;3.50;;;7.30;60.30;;;;;;4966090;28;20034;-81
2022/11/25 04:14:24;;;;;;;5.07;3.47;;;7.40;62.20;;;;;;5005948;28;20165;-79
2022/11/25 04:16:51;;;;;;;6.60;3.65;;;7.40;62.10;;;;;;5021857;28;20219;-77
2022/11/25 04:19:17;;;;;;;6.95;3.65;;;7.40;61.90;;;;;;5003708;28;20259;-78
2022/11/25 04:21:44;;;;;;;5.72;4.00;;;7.40;61.40;;;;;;5005039;28;20034;-77
2022/11/25 04:24:10;;;;;;;7.07;4.30;;;7.40;61.10;;;;;;4972897;28;20030;-77
2022/11/25 04:26:36;;;;;;;6.07;4.20;;;7.40;60.80;;;;;;5021231;28;20434;-78
2022/11/25 04:29:03;;;;;;;6.47;3.85;;;7.40;60.60;;;;;;4989154;28;20129;-78
2022/11/25 04:31:29;;;;;;;6.57;4.13;;;7.40;60.60;;;;;;5004562;28;20042;-77
2022/11/25 04:33:54;;;;;;;6.75;4.00;;;7.40;60.50;;;;;;5006512;28;20459;-77
2022/11/25 04:36:23;;;;;;;8.65;4.55;;;7.40;60.60;;;;;;5005097;28;20394;-80
2022/11/25 04:38:49;;;;;;;6.47;4.45;;;7.40;60.40;;;;;;4988981;28;20068;-78
2022/11/25 04:41:16;;;;;;;7.10;4.50;;;7.40;60.40;;;;;;5004162;28;20416;-77
2022/11/25 04:43:44;;;;;;;7.95;4.50;;;7.40;60.20;;;;;;4996865;28;20034;-75
2022/11/25 04:46:17;;;;;;;7.35;4.50;;;7.40;60.10;;;;;;5026028;28;20052;-76
2022/11/25 04:48:47;;;;;;;6.88;4.28;;;7.40;60.20;;;;;;5005068;28;20489;-75
2022/11/25 04:51:14;;;;;;;6.25;3.78;;;7.40;60.20;;;;;;4973958;28;20049;-76
2022/11/25 04:53:41;;;;;;;6.47;4.60;;;7.40;60.30;;;;;;5006239;28;20041;-74
2022/11/25 04:56:16;;;;;;;6.45;4.00;;;7.40;60.50;;;;;;4988886;28;20062;-75
2022/11/25 05:01:28;;;;;;;6.95;4.28;;;7.40;60.60;;;;;;5004060;28;20096;-73
2022/11/25 05:04:02;;;;;;;9.20;4.53;;;7.40;60.60;;;;;;5003926;28;20114;-73
2022/11/25 05:06:28;;;;;;;7.63;4.20;;;7.40;60.70;;;;;;5005855;28;20030;-74
2022/11/25 05:08:54;;;;;;;7.53;3.83;;;7.40;60.80;;;;;;5004606;28;20072;-73
2022/11/25 05:11:22;;;;;;;8.40;4.40;;;7.40;60.90;;;;;;5004568;28;20520;-73
2022/11/25 05:13:49;;;;;;;6.97;4.10;;;7.40;61.10;;;;;;5004045;28;20069;-74
2022/11/25 05:16:15;;;;;;;6.70;4.13;;;7.40;61.20;;;;;;5003042;28;20068;-75
2022/11/25 05:18:41;;;;;;;6.70;4.20;;;7.40;61.10;;;;;;4987878;28;20060;-74
2022/11/25 05:21:07;;;;;;;5.70;3.90;;;7.40;60.90;;;;;;5004053;28;20033;-74
2022/11/25 05:23:37;;;;;;;6.47;3.90;;;7.40;60.90;;;;;;4986278;28;20038;-74
2022/11/25 05:26:03;;;;;;;8.02;3.90;;;7.40;61.00;;;;;;4983457;28;20080;-74
2022/11/25 05:28:37;;;;;;;6.03;3.58;;;7.40;60.80;;;;;;4969565;28;20046;-74
2022/11/25 05:31:03;;;;;;;7.55;4.78;;;7.40;60.80;;;;;;5002937;28;20064;-75
2022/11/25 05:33:29;;;;;;;8.00;4.50;;;7.40;60.80;;;;;;5003315;28;20358;-75
2022/11/25 05:36:01;;;;;;;8.45;4.50;;;7.40;60.80;;;;;;5005047;28;20136;-75
2022/11/25 05:38:35;;;;;;;7.43;4.05;;;7.40;60.80;;;;;;4999031;28;20030;-75
2022/11/25 05:41:03;;;;;;;7.40;4.00;;;7.40;60.70;;;;;;4999468;28;20026;-75
2022/11/25 05:43:31;;;;;;;8.45;4.43;;;7.40;60.60;;;;;;4987200;28;20117;-75
2022/11/25 05:45:59;;;;;;;7.00;4.45;;;7.40;60.60;;;;;;5002400;28;20121;-75
2022/11/25 05:48:25;;;;;;;6.38;4.25;;;7.40;60.50;;;;;;5019228;28;20057;-75
2022/11/25 05:50:51;;;;;;;5.30;3.28;;;7.40;60.40;;;;;;5003355;28;20349;-76
2022/11/25 05:53:21;;;;;;;7.18;4.35;;;7.40;60.90;;;;;;4987594;28;20022;-76
2022/11/25 05:56:01;;;;;;;5.63;3.55;;;7.40;60.20;;;;;;5003134;28;20041;-77
2022/11/25 05:58:47;;;;;;;8.32;3.28;;;7.40;66.70;;;;;;5014283;28;20564;-77
2022/11/25 06:01:15;;;;;;;6.43;3.80;;;7.50;72.40;;;;;;5004453;28;20453;-76
2022/11/25 06:03:41;;;;;;;6.43;3.35;;;7.60;74.20;;;;;;5006877;28;20137;-76
2022/11/25 06:06:09;;;;;;;6.82;4.22;;;7.70;70.80;;;;;;5001811;28;20034;-75
2022/11/25 06:08:38;;;;;;;7.40;4.60;;;7.80;68.70;;;;;;5002820;28;20038;-75
2022/11/25 06:11:06;;;;;;;6.82;4.70;;;7.90;65.70;;;;;;5004047;28;21040;-76
2022/11/25 06:13:32;;;;;;;9.73;4.78;;;7.90;63.20;;;;;;5008727;28;20034;-75
2022/11/25 06:15:58;;;;;;;8.38;4.65;;;7.90;61.30;;;;;;5004897;28;20049;-76
2022/11/25 06:18:24;;;;;;;8.85;5.20;;;7.80;59.70;;;;;;5023894;28;20042;-75
2022/11/25 06:20:57;;;;;;;7.93;4.35;;;7.70;58.60;;;;;;4991379;28;20483;-75
2022/11/25 06:23:24;;;;;;;8.43;5.03;;;7.70;57.80;;;;;;4991271;28;20070;-76
2022/11/25 06:25:51;;;;;;;10.48;5.53;;;7.60;57.30;;;;;;5001994;28;20026;-76
2022/11/25 06:28:17;;;;;;;8.00;4.60;;;7.60;57.00;;;;;;5007861;28;20160;-76
2022/11/25 06:30:47;;;;;;;10.82;5.70;;;7.50;56.80;;;;;;5007132;28;20108;-75
2022/11/25 06:33:23;;;;;;;9.35;5.05;;;7.50;56.70;;;;;;5007668;28;20030;-76
2022/11/25 06:35:50;;;;;;;9.68;5.68;;;7.50;56.50;;;;;;5008586;28;20048;-76
2022/11/25 06:38:15;;;;;;;9.20;5.10;;;7.40;56.20;;;;;;5008717;28;20965;-76
2022/11/25 06:40:41;;;;;;;10.70;5.35;;;7.30;56.20;;;;;;5007146;28;20030;-76
2022/11/25 06:43:07;;;;;;;11.05;5.45;;;7.30;55.90;;;;;;5005034;28;20034;-75
2022/11/25 06:45:33;;;;;;;9.95;5.75;;;7.30;56.00;;;;;;5007863;28;20049;-76
2022/11/25 06:47:59;;;;;;;10.05;5.15;;;7.20;55.90;;;;;;5010149;28;20038;-75
2022/11/25 06:50:25;;;;;;;9.32;5.13;;;7.20;55.80;;;;;;5008501;28;20041;-76
2022/11/25 06:52:51;;;;;;;10.25;5.50;;;7.20;55.90;;;;;;5006967;28;20650;-76
2022/11/25 06:55:16;;;;;;;10.50;5.60;;;7.10;55.80;;;;;;4990963;28;20548;-76
2022/11/25 06:57:42;;;;;;;9.40;5.38;;;7.10;55.70;;;;;;5006246;28;20516;-76
2022/11/25 07:00:09;;;;;;;9.35;5.55;;;7.00;55.60;;;;;;4990094;28;21508;-76
2022/11/25 07:02:34;;;;;;;8.07;5.20;;;7.00;55.60;;;;;;5009270;28;20023;-76
2022/11/25 07:05:00;;;;;;;9.85;5.15;;;7.00;55.60;;;;;;5007888;28;20030;-76
2022/11/25 07:07:26;;;;;;;8.32;4.90;;;7.00;55.60;;;;;;5007577;28;20038;-76
2022/11/25 07:09:52;;;;;;;8.90;4.60;;;6.90;55.50;;;;;;5007148;28;20132;-76
2022/11/25 07:12:18;;;;;;;8.73;4.97;;;6.90;55.60;;;;;;5007408;28;20132;-76
2022/11/25 07:14:44;;;;;;;11.20;5.57;;;6.90;55.50;;;;;;5007598;28;20125;-76
2022/11/25 07:17:10;;;;;;;10.13;5.47;;;6.90;55.50;;;;;;5004246;28;20030;-75
2022/11/25 07:19:36;;;;;;;11.02;5.70;;;6.80;55.50;;;;;;5007883;28;20034;-76
2022/11/25 07:22:02;;;;;;;10.00;5.45;;;6.80;55.40;;;;;;5008537;28;20172;-77
2022/11/25 07:36:21;;;;;;;8.98;4.80;;;6.70;55.00;;;;;;5085330;27;20915;-75
2022/11/25 07:38:47;;;;;;;8.63;5.63;;;6.60;56.30;;;;;;5053920;28;20136;-74
2022/11/25 07:41:16;;;;;;;8.45;5.47;;;6.70;55.50;;;;;;5047753;28;20127;-75
2022/11/25 07:43:47;;;;;;;10.98;6.32;;;6.60;55.00;;;;;;5052841;28;20478;-74
2022/11/25 07:46:19;;;;;;;8.55;5.68;;;6.70;55.10;;;;;;5059179;28;20041;-74
2022/11/25 07:48:45;;;;;;;11.10;5.82;;;6.70;55.00;;;;;;5052318;28;20037;-74
2022/11/25 07:51:21;;;;;;;9.45;5.35;;;6.60;55.00;;;;;;5016654;28;20037;-74
2022/11/25 07:53:48;;;;;;;11.30;5.68;;;6.60;55.00;;;;;;5053151;28;20068;-75
2022/11/25 07:56:15;;;;;;;11.32;5.15;;;6.60;55.10;;;;;;5058680;28;20041;-75
2022/11/25 07:58:41;;;;;;;9.88;5.90;;;6.50;55.00;;;;;;5018750;28;20033;-77
2022/11/25 08:01:09;;;;;;;9.38;4.90;;;6.50;55.00;;;;;;5032962;28;20458;-76
2022/11/25 08:03:36;;;;;;;9.35;5.00;;;6.50;55.00;;;;;;5063199;28;20063;-77
2022/11/25 08:06:09;;;;;;;9.73;5.20;;;6.50;55.10;;;;;;5039356;28;20041;-76
2022/11/25 08:08:36;;;;;;;8.32;4.95;;;6.40;55.00;;;;;;5047775;28;20033;-77
2022/11/25 08:11:11;;;;;;;9.40;5.10;;;6.40;55.00;;;;;;5047529;28;20033;-77
2022/11/25 08:13:37;;;;;;;10.63;5.53;;;6.40;55.20;;;;;;5051046;28;20032;-76
2022/11/25 08:16:04;;;;;;;10.30;5.07;;;6.40;55.20;;;;;;5081512;28;20351;-76
2022/11/25 08:18:30;;;;;;;8.68;4.75;;;6.40;55.40;;;;;;5068887;28;20037;-76
2022/11/25 08:21:03;;;;;;;10.55;5.47;;;6.40;55.60;;;;;;5055474;28;20402;-76
2022/11/25 08:23:30;;;;;;;10.43;5.50;;;6.40;55.70;;;;;;5066063;28;20495;-76
2022/11/25 08:25:56;;;;;;;8.90;5.15;;;6.40;55.70;;;;;;5051574;28;20041;-75
2022/11/25 08:28:23;;;;;;;10.32;5.47;;;6.30;55.60;;;;;;5051827;28;20055;-76
2022/11/25 08:30:49;;;;;;;7.90;5.05;;;6.40;55.60;;;;;;5053036;28;20052;-76
2022/11/25 08:33:15;;;;;;;10.85;5.55;;;6.30;55.60;;;;;;5071686;28;20040;-75
2022/11/25 08:35:41;;;;;;;10.40;5.40;;;6.30;55.70;;;;;;5033401;28;20045;-76
2022/11/25 08:38:10;;;;;;;8.93;5.40;;;6.30;55.80;;;;;;5031666;28;20033;-76
2022/11/25 08:40:36;;;;;;;8.43;4.93;;;6.30;55.70;;;;;;5020783;28;20061;-75
2022/11/25 08:43:03;;;;;;;7.82;5.18;;;6.30;55.70;;;;;;5018657;28;20026;-75
2022/11/25 08:45:29;;;;;;;8.77;5.20;;;6.30;55.70;;;;;;5021742;28;20456;-76
2022/11/25 08:47:56;;;;;;;9.38;5.35;;;6.30;55.50;;;;;;5019627;28;20041;-76
2022/11/25 08:50:25;;;;;;;9.55;5.63;;;6.30;55.60;;;;;;5018339;28;20120;-77
2022/11/25 08:52:50;;;;;;;9.65;5.50;;;6.30;55.60;;;;;;5018715;28;20045;-76
2022/11/25 08:55:16;;;;;;;9.48;5.70;;;6.20;55.50;;;;;;5018419;28;20293;-75
2022/11/25 08:57:42;;;;;;;8.77;5.40;;;6.20;55.50;;;;;;5018313;28;20069;-76
2022/11/25 09:00:09;;;;;;;9.70;5.55;;;6.20;55.50;;;;;;5017890;28;20034;-75
2022/11/25 09:02:35;;;;;;;8.57;5.47;;;6.20;55.40;;;;;;5015942;28;20479;-76
2022/11/25 09:05:01;;;;;;;9.52;5.63;;;6.20;55.50;;;;;;5015786;28;20124;-75
2022/11/25 09:07:27;;;;;;;8.15;5.10;;;6.20;55.40;;;;;;5014927;28;20037;-74
2022/11/25 09:09:53;;;;;;;7.43;4.63;;;6.20;55.40;;;;;;5014870;28;20029;-75
2022/11/25 09:12:19;;;;;;;9.98;5.38;;;6.20;55.40;;;;;;5015475;28;20045;-75
2022/11/25 09:14:45;;;;;;;9.30;5.80;;;6.20;55.40;;;;;;5016043;28;20037;-75
2022/11/25 09:17:14;;;;;;;7.93;5.00;;;6.20;55.40;;;;;;5016284;28;20041;-76
2022/11/25 09:19:40;;;;;;;8.93;5.40;;;6.20;55.50;;;;;;5017625;28;20029;-75
2022/11/25 09:22:06;;;;;;;8.63;5.18;;;6.20;55.40;;;;;;5017152;28;20032;-76
2022/11/25 09:24:34;;;;;;;8.38;5.28;;;6.20;55.50;;;;;;5015452;28;20067;-76
2022/11/25 09:27:00;;;;;;;8.70;4.53;;;6.20;55.50;;;;;;5014949;28;20585;-75
2022/11/25 09:29:28;;;;;;;7.90;4.97;;;6.20;55.50;;;;;;5018454;28;20034;-75
2022/11/25 09:31:54;;;;;;;8.07;5.00;;;6.20;55.40;;;;;;5016146;28;20088;-76
2022/11/25 09:34:20;;;;;;;10.20;5.78;;;6.20;55.40;;;;;;5030738;28;20053;-75
2022/11/25 09:36:46;;;;;;;8.52;5.68;;;6.10;55.40;;;;;;5015673;28;20044;-75
2022/11/25 09:39:12;;;;;;;7.75;4.78;;;6.10;55.50;;;;;;5014041;28;20045;-75
2022/11/25 09:47:51;;;;;;;9.35;5.95;;;6.10;55.50;;;;;;5014750;28;20037;-75
2022/11/25 09:50:32;;;;;;;10.50;6.13;;;6.10;55.40;;;;;;5016229;28;20044;-75
2022/11/25 09:53:21;;;;;;;10.88;5.28;;;6.10;55.40;;;;;;4997301;28;20069;-75
2022/11/25 09:55:49;;;;;;;7.53;5.40;;;6.10;55.60;;;;;;4974432;28;20121;-75
2022/11/25 09:58:57;;;;;;;10.45;5.90;;;6.10;55.60;;;;;;5017710;28;20029;-74
2022/11/25 10:01:25;;;;;;;11.30;6.68;;;6.10;55.60;;;;;;4973909;28;20627;-74
2022/11/25 10:04:05;;;;;;;9.70;5.93;;;6.10;55.70;;;;;;4974681;28;20038;-75
2022/11/25 10:06:39;;;;;;;10.98;5.78;;;6.10;55.60;;;;;;4974565;28;20035;-75
2022/11/25 10:09:14;;;;;;;7.53;5.57;;;6.10;55.60;;;;;;4965152;28;20034;-75
2022/11/25 10:11:45;;;;;;;8.85;5.75;;;6.00;55.60;;;;;;4928427;28;20812;-74
2022/11/25 10:14:41;;;;;;;9.25;5.50;;;6.00;55.60;;;;;;4973824;28;20042;-75
2022/11/25 10:17:22;;;;;;;8.55;5.32;;;6.00;55.70;;;;;;4973314;28;20085;-75
2022/11/25 10:20:11;;;;;;;8.02;5.35;;;6.00;55.70;;;;;;4973560;28;20627;-75
2022/11/25 10:22:44;;;;;;;9.05;5.72;;;6.00;55.70;;;;;;4972895;28;20034;-75
2022/11/25 10:25:20;;;;;;;10.32;5.43;;;6.00;55.70;;;;;;4973516;28;20090;-75
2022/11/25 10:27:59;;;;;;;8.82;5.85;;;6.00;55.70;;;;;;4973637;28;20041;-75
2022/11/25 10:31:10;;;;;;;8.68;4.97;;;6.00;55.60;;;;;;4957209;28;20095;-75
2022/11/25 10:33:44;;;;;;;9.93;5.72;;;6.00;55.70;;;;;;4954203;28;20460;-75
2022/11/25 10:36:19;;;;;;;9.38;5.28;;;6.00;55.60;;;;;;4959771;28;20039;-75
2022/11/25 10:38:55;;;;;;;7.80;5.38;;;5.90;55.60;;;;;;5009464;28;20130;-75
2022/11/25 10:41:23;;;;;;;;;;;5.90;55.70;;;;;;5014245;28;20047;-75
2022/11/25 10:43:49;;;;;;;9.18;5.47;;;5.90;55.70;;;;;;5017037;28;19917;-75
2022/11/25 10:46:42;;;;;;;9.40;4.95;;;5.90;55.70;;;;;;5014814;28;20557;-75
2022/11/25 10:49:41;;;;;;;8.27;5.47;;;5.90;55.70;;;;;;5013858;28;20535;-75
2022/11/25 10:52:12;;;;;;;7.10;4.80;;;5.90;55.50;;;;;;5011937;28;20164;-75
2022/11/25 10:54:38;;;;;;;8.93;5.35;;;5.90;55.60;;;;;;4994360;28;20099;-75
2022/11/25 10:57:19;;;;;;;8.15;5.43;;;5.90;55.70;;;;;;5013265;28;20041;-75
2022/11/25 10:59:57;;;;;;;6.95;4.93;;;5.90;55.70;;;;;;5027705;28;20132;-76
2022/11/25 11:02:29;;;;;;;8.48;5.20;;;5.80;55.70;;;;;;5012266;28;20041;-75
2022/11/25 11:05:09;;;;;;;9.63;4.78;;;5.80;55.60;;;;;;5022185;28;20516;-75
2022/11/25 11:07:39;;;;;;;7.30;4.82;;;5.80;55.70;;;;;;5047560;28;20547;-76
2022/11/25 11:10:13;;;;;;;8.23;5.38;;;5.80;55.60;;;;;;5041151;28;20091;-76
2022/11/25 11:12:59;;;;;;;7.03;4.72;;;5.80;55.60;;;;;;5046582;28;20615;-76
2022/11/25 11:15:46;;;;;;;6.82;4.40;;;5.80;55.60;;;;;;5023126;28;20048;-75
2022/11/25 11:18:26;;;;;;;8.73;5.20;;;5.80;55.80;;;;;;5027498;28;20034;-74
2022/11/25 11:20:58;;;;;;;7.40;4.82;;;5.80;55.70;;;;;;5024320;28;20172;-77
2022/11/25 11:23:25;;;;;;;7.32;4.70;;;5.80;55.60;;;;;;5018648;28;20034;-74
2022/11/25 11:26:03;;;;;;;7.22;4.72;;;5.80;55.70;;;;;;5033655;28;20478;-76
2022/11/25 11:28:35;;;;;;;6.90;5.07;;;5.80;55.70;;;;;;5047074;28;20554;-75
2022/11/25 11:31:23;;;;;;;7.38;5.05;;;5.80;55.60;;;;;;5030278;28;20427;-76
2022/11/25 11:34:06;;;;;;;7.05;4.70;;;5.80;55.70;;;;;;5026644;28;20412;-76
2022/11/25 11:36:44;;;;;;;6.75;4.55;;;5.80;55.70;;;;;;5033667;28;20094;-75
2022/11/25 11:39:16;;;;;;;6.63;4.72;;;5.70;55.70;;;;;;5044923;28;20067;-75
2022/11/25 11:42:12;;;;;;;6.75;4.53;;;5.70;55.80;;;;;;5040067;28;20076;-76
2022/11/25 11:45:01;;;;;;;6.38;4.70;;;5.70;55.70;;;;;;5046260;28;20208;-75
2022/11/25 11:48:03;;;;;;;8.18;4.60;;;5.70;55.80;;;;;;5043282;28;20534;-76
2022/11/25 11:50:36;;;;;;;7.53;4.63;;;5.70;55.90;;;;;;5038451;28;20036;-75
2022/11/25 11:53:30;;;;;;;7.57;5.20;;;5.70;55.80;;;;;;5033075;28;20030;-75
2022/11/25 11:56:08;;;;;;;6.38;4.47;;;5.70;55.90;;;;;;5044640;28;20372;-75
2022/11/25 11:58:51;;;;;;;5.10;4.07;;;5.70;55.80;;;;;;5044682;28;20037;-75
2022/11/25 12:01:44;;;;;;;6.45;4.68;;;5.70;55.90;;;;;;5046047;28;20033;-76
2022/11/25 12:04:35;;;;;;;6.47;4.50;;;5.70;55.80;;;;;;5040296;28;20135;-76
2022/11/25 12:07:10;;;;;;;5.70;4.35;;;5.70;55.90;;;;;;5035176;28;20041;-74
2022/11/25 12:09:51;;;;;;;6.07;4.57;;;5.60;55.90;;;;;;5034428;28;20037;-75
2022/11/25 12:12:18;;;;;;;7.10;4.53;;;5.60;55.70;;;;;;5039837;28;20033;-76
2022/11/25 12:14:54;;;;;;;5.82;4.20;;;5.60;56.10;;;;;;5041788;28;20488;-76
2022/11/25 12:17:29;;;;;;;5.57;3.63;;;5.70;57.30;;;;;;5048430;28;20033;-77
2022/11/25 12:20:05;;;;;;;5.00;3.65;;;5.80;59.50;;;;;;5038568;28;20600;-77
2022/11/25 12:22:58;;;;;;;4.22;3.03;;;5.80;60.20;;;;;;5037779;28;20041;-77
2022/11/25 12:25:34;;;;;;;5.38;3.75;;;5.90;60.80;;;;;;5037452;28;20059;-76
2022/11/25 12:28:19;;;;;;;6.13;3.65;;;5.90;60.80;;;;;;5037472;28;20052;-75
2022/11/25 12:30:58;;;;;;;4.57;3.17;;;6.00;60.90;;;;;;5038903;28;20041;-75
2022/11/25 12:33:59;;;;;;;4.63;3.13;;;6.00;60.70;;;;;;5035917;28;20038;-76
2022/11/25 12:36:35;;;;;;;5.38;2.90;;;6.10;61.00;;;;;;5030698;28;20068;-75
2022/11/25 12:39:14;;;;;;;4.47;3.28;;;6.10;61.20;;;;;;5035855;28;20953;-76
2022/11/25 12:42:03;;;;;;;5.90;3.28;;;6.20;61.70;;;;;;5038361;28;20128;-75
2022/11/25 12:44:58;;;;;;;6.00;3.42;;;6.20;62.10;;;;;;5040058;28;20033;-75
2022/11/25 12:47:25;;;;;;;4.78;3.08;;;6.20;62.30;;;;;;5036867;28;21604;-76
2022/11/25 12:49:53;;;;;;;4.75;3.22;;;6.30;62.80;;;;;;5038152;28;20128;-76
2022/11/25 12:52:32;;;;;;;3.97;3.20;;;6.30;63.20;;;;;;5039055;28;20146;-75
2022/11/25 12:55:10;;;;;;;4.03;3.17;;;6.30;63.70;;;;;;5037692;28;20519;-76
2022/11/25 12:57:44;;;;;;;6.82;3.45;;;6.40;64.00;;;;;;5037189;28;20039;-74
2022/11/25 13:00:35;;;;;;;5.80;3.40;;;6.40;64.30;;;;;;5037787;28;20090;-75
2022/11/25 13:03:40;;;;;;;4.43;2.95;;;6.40;64.70;;;;;;5037621;28;20076;-75
2022/11/25 13:06:29;;;;;;;3.90;2.83;;;6.50;64.80;;;;;;5036001;28;20037;-75
2022/11/25 13:09:45;;;;;;;5.10;3.35;;;6.50;64.60;;;;;;5035760;28;20137;-75
2022/11/25 13:12:23;;;;;;;5.55;3.38;;;6.50;64.20;;;;;;5036036;28;20036;-76
2022/11/25 13:15:24;;;;;;;5.18;3.78;;;6.60;64.60;;;;;;5036337;28;20114;-75
2022/11/25 13:17:55;;;;;;;4.65;3.05;;;6.60;64.60;;;;;;5037184;28;20606;-76
2022/11/25 13:20:47;;;;;;;6.65;3.40;;;6.70;64.80;;;;;;5039612;28;20383;-76
2022/11/25 13:23:15;;;;;;;4.75;3.30;;;6.70;64.70;;;;;;5052708;28;20072;-77
2022/11/25 13:25:44;;;;;;;4.90;3.15;;;6.70;64.60;;;;;;5035031;28;20044;-78
2022/11/25 13:28:35;;;;;;;4.95;2.85;;;6.70;64.60;;;;;;5042754;28;20548;-77
2022/11/25 13:31:13;;;;;;;4.57;3.00;;;6.80;64.80;;;;;;5034861;28;20131;-76
2022/11/25 13:33:42;;;;;;;4.95;2.70;;;6.80;65.00;;;;;;5034487;28;20033;-76
2022/11/25 13:36:22;;;;;;;5.30;3.20;;;6.80;65.20;;;;;;5036114;28;20416;-77
2022/11/25 13:38:48;;;;;;;5.97;3.38;;;6.80;65.20;;;;;;5037415;28;20120;-77
2022/11/25 13:41:22;;;;;;;5.03;3.05;;;6.90;65.40;;;;;;5034889;28;20037;-77
2022/11/25 13:43:53;;;;;;;5.13;3.17;;;6.90;65.80;;;;;;5036175;28;20033;-77
2022/11/25 13:46:53;;;;;;;4.55;3.22;;;6.90;65.80;;;;;;5035966;28;20032;-77
2022/11/25 13:49:50;;;;;;;4.53;3.35;;;6.90;65.90;;;;;;5035779;28;20543;-78